sensor_id;sensor_type;location;lat;lon;timestamp;P1;durP1;ratioP1;P2;durP2;ratioP2
44670;SDS011;48397;53.016;-2.260;2023-04-29T00:03:33;42.80;;;21.05;;
44670;SDS011;48397;53.016;-2.260;2023-04-29T00:06:01;41.03;;;19.52;;
44670;SDS011;48397;53.016;-2.260;2023-04-29T00:08:29;39.95;;;19.48;;
44670;SDS011;48397;53.016;-2.260;2023-04-29T00:10:57;42.33;;;20.10;;
44670;SDS011;48397;53.016;-2.260;2023-04-29T00:15:52;46.22;;;21.77;;
44670;SDS011;48397;53.016;-2.260;2023-04-29T00:18:20;41.70;;;18.90;;
44670;SDS011;48397;53.016;-2.260;2023-04-29T00:20:48;39.45;;;18.90;;
44670;SDS011;48397;53.016;-2.260;2023-04-29T00:23:15;38.60;;;18.10;;
44670;SDS011;48397;53.016;-2.260;2023-04-29T00:25:43;39.70;;;20.02;;
44670;SDS011;48397;53.016;-2.260;2023-04-29T00:28:11;38.88;;;18.98;;
44670;SDS011;48397;53.016;-2.260;2023-04-29T00:30:39;40.03;;;19.27;;
44670;SDS011;48397;53.016;-2.260;2023-04-29T00:33:06;43.38;;;19.45;;
44670;SDS011;48397;53.016;-2.260;2023-04-29T00:35:34;46.05;;;20.30;;
44670;SDS011;48397;53.016;-2.260;2023-04-29T00:38:02;37.00;;;18.20;;
44670;SDS011;48397;53.016;-2.260;2023-04-29T00:40:30;40.15;;;18.48;;
44670;SDS011;48397;53.016;-2.260;2023-04-29T00:42:57;39.17;;;18.33;;
44670;SDS011;48397;53.016;-2.260;2023-04-29T00:47:54;45.13;;;20.33;;
44670;SDS011;48397;53.016;-2.260;2023-04-29T00:50:22;42.85;;;18.95;;
44670;SDS011;48397;53.016;-2.260;2023-04-29T00:52:50;41.28;;;19.33;;
44670;SDS011;48397;53.016;-2.260;2023-04-29T00:55:19;45.35;;;20.20;;
44670;SDS011;48397;53.016;-2.260;2023-04-29T00:57:47;45.13;;;20.42;;
44670;SDS011;48397;53.016;-2.260;2023-04-29T01:00:18;42.60;;;20.15;;
44670;SDS011;48397;53.016;-2.260;2023-04-29T01:02:46;46.22;;;20.55;;
44670;SDS011;48397;53.016;-2.260;2023-04-29T01:05:16;43.97;;;21.23;;
44670;SDS011;48397;53.016;-2.260;2023-04-29T01:18:36;37.67;;;19.13;;
44670;SDS011;48397;53.016;-2.260;2023-04-29T01:21:10;37.88;;;17.52;;
44670;SDS011;48397;53.016;-2.260;2023-04-29T01:23:38;38.20;;;18.67;;
44670;SDS011;48397;53.016;-2.260;2023-04-29T01:26:06;43.33;;;19.63;;
44670;SDS011;48397;53.016;-2.260;2023-04-29T01:31:24;40.17;;;19.92;;
44670;SDS011;48397;53.016;-2.260;2023-04-29T01:34:09;44.47;;;19.65;;
44670;SDS011;48397;53.016;-2.260;2023-04-29T01:40:11;44.35;;;20.73;;
44670;SDS011;48397;53.016;-2.260;2023-04-29T01:43:01;42.15;;;20.55;;
44670;SDS011;48397;53.016;-2.260;2023-04-29T01:45:32;43.35;;;20.42;;
44670;SDS011;48397;53.016;-2.260;2023-04-29T01:48:00;43.90;;;21.35;;
44670;SDS011;48397;53.016;-2.260;2023-04-29T01:50:31;43.25;;;20.20;;
44670;SDS011;48397;53.016;-2.260;2023-04-29T01:53:07;45.20;;;19.42;;
44670;SDS011;48397;53.016;-2.260;2023-04-29T01:58:25;48.33;;;21.60;;
44670;SDS011;48397;53.016;-2.260;2023-04-29T02:01:08;46.42;;;20.88;;
44670;SDS011;48397;53.016;-2.260;2023-04-29T02:03:37;49.80;;;20.83;;
44670;SDS011;48397;53.016;-2.260;2023-04-29T02:06:08;50.47;;;22.08;;
44670;SDS011;48397;53.016;-2.260;2023-04-29T02:08:38;46.47;;;21.27;;
44670;SDS011;48397;53.016;-2.260;2023-04-29T02:11:06;42.70;;;19.88;;
44670;SDS011;48397;53.016;-2.260;2023-04-29T02:13:36;44.05;;;21.30;;
44670;SDS011;48397;53.016;-2.260;2023-04-29T02:16:08;46.40;;;21.70;;
44670;SDS011;48397;53.016;-2.260;2023-04-29T02:18:41;45.00;;;20.80;;
44670;SDS011;48397;53.016;-2.260;2023-04-29T02:21:09;47.72;;;21.27;;
44670;SDS011;48397;53.016;-2.260;2023-04-29T02:23:38;45.72;;;20.77;;
44670;SDS011;48397;53.016;-2.260;2023-04-29T02:26:05;45.92;;;22.52;;
44670;SDS011;48397;53.016;-2.260;2023-04-29T02:28:35;52.20;;;21.63;;
44670;SDS011;48397;53.016;-2.260;2023-04-29T02:31:03;41.97;;;20.23;;
44670;SDS011;48397;53.016;-2.260;2023-04-29T02:33:31;49.20;;;20.50;;
44670;SDS011;48397;53.016;-2.260;2023-04-29T02:38:27;52.20;;;22.25;;
44670;SDS011;48397;53.016;-2.260;2023-04-29T02:40:54;50.83;;;22.73;;
44670;SDS011;48397;53.016;-2.260;2023-04-29T02:43:22;45.53;;;20.45;;
44670;SDS011;48397;53.016;-2.260;2023-04-29T02:45:50;50.03;;;22.58;;
44670;SDS011;48397;53.016;-2.260;2023-04-29T02:48:19;48.60;;;20.23;;
44670;SDS011;48397;53.016;-2.260;2023-04-29T02:50:47;51.67;;;22.55;;
44670;SDS011;48397;53.016;-2.260;2023-04-29T02:53:15;53.38;;;22.88;;
44670;SDS011;48397;53.016;-2.260;2023-04-29T02:55:43;53.17;;;23.77;;
44670;SDS011;48397;53.016;-2.260;2023-04-29T03:00:41;47.92;;;23.30;;
44670;SDS011;48397;53.016;-2.260;2023-04-29T03:03:09;53.15;;;22.63;;
44670;SDS011;48397;53.016;-2.260;2023-04-29T03:05:37;49.80;;;22.15;;
44670;SDS011;48397;53.016;-2.260;2023-04-29T03:08:05;53.13;;;23.73;;
44670;SDS011;48397;53.016;-2.260;2023-04-29T03:10:33;50.58;;;22.27;;
44670;SDS011;48397;53.016;-2.260;2023-04-29T03:13:02;50.47;;;23.58;;
44670;SDS011;48397;53.016;-2.260;2023-04-29T03:15:31;53.25;;;22.92;;
44670;SDS011;48397;53.016;-2.260;2023-04-29T03:17:59;52.20;;;22.80;;
44670;SDS011;48397;53.016;-2.260;2023-04-29T03:20:28;54.97;;;22.75;;
44670;SDS011;48397;53.016;-2.260;2023-04-29T03:22:56;50.90;;;22.63;;
44670;SDS011;48397;53.016;-2.260;2023-04-29T03:25:23;56.67;;;23.42;;
44670;SDS011;48397;53.016;-2.260;2023-04-29T03:27:51;53.53;;;23.73;;
44670;SDS011;48397;53.016;-2.260;2023-04-29T03:30:19;51.92;;;21.77;;
44670;SDS011;48397;53.016;-2.260;2023-04-29T03:32:50;49.25;;;20.75;;
44670;SDS011;48397;53.016;-2.260;2023-04-29T03:35:18;51.42;;;22.83;;
44670;SDS011;48397;53.016;-2.260;2023-04-29T03:38:06;49.65;;;21.73;;
44670;SDS011;48397;53.016;-2.260;2023-04-29T03:40:35;50.03;;;21.20;;
44670;SDS011;48397;53.016;-2.260;2023-04-29T03:43:03;55.47;;;23.88;;
44670;SDS011;48397;53.016;-2.260;2023-04-29T03:45:31;59.40;;;23.60;;
44670;SDS011;48397;53.016;-2.260;2023-04-29T03:50:27;62.22;;;27.08;;
44670;SDS011;48397;53.016;-2.260;2023-04-29T03:52:55;55.38;;;24.88;;
44670;SDS011;48397;53.016;-2.260;2023-04-29T03:55:23;52.05;;;22.85;;
44670;SDS011;48397;53.016;-2.260;2023-04-29T03:57:52;51.13;;;22.30;;
44670;SDS011;48397;53.016;-2.260;2023-04-29T04:00:20;56.05;;;22.90;;
44670;SDS011;48397;53.016;-2.260;2023-04-29T04:02:52;56.03;;;24.23;;
44670;SDS011;48397;53.016;-2.260;2023-04-29T04:05:20;57.70;;;23.92;;
44670;SDS011;48397;53.016;-2.260;2023-04-29T04:07:56;52.05;;;22.27;;
44670;SDS011;48397;53.016;-2.260;2023-04-29T04:13:26;54.25;;;24.17;;
44670;SDS011;48397;53.016;-2.260;2023-04-29T04:15:53;56.03;;;25.30;;
44670;SDS011;48397;53.016;-2.260;2023-04-29T04:18:21;62.05;;;25.15;;
44670;SDS011;48397;53.016;-2.260;2023-04-29T04:20:49;56.67;;;24.13;;
44670;SDS011;48397;53.016;-2.260;2023-04-29T04:23:17;59.45;;;23.27;;
44670;SDS011;48397;53.016;-2.260;2023-04-29T04:25:45;57.88;;;24.23;;
44670;SDS011;48397;53.016;-2.260;2023-04-29T04:28:46;64.68;;;25.10;;
44670;SDS011;48397;53.016;-2.260;2023-04-29T04:31:25;63.05;;;27.23;;
44670;SDS011;48397;53.016;-2.260;2023-04-29T04:36:22;66.78;;;26.77;;
44670;SDS011;48397;53.016;-2.260;2023-04-29T04:38:50;72.15;;;28.08;;
44670;SDS011;48397;53.016;-2.260;2023-04-29T04:41:17;60.95;;;26.42;;
44670;SDS011;48397;53.016;-2.260;2023-04-29T04:43:47;63.75;;;26.13;;
44670;SDS011;48397;53.016;-2.260;2023-04-29T04:46:41;68.05;;;28.45;;
44670;SDS011;48397;53.016;-2.260;2023-04-29T04:49:26;61.55;;;25.95;;
44670;SDS011;48397;53.016;-2.260;2023-04-29T04:51:55;63.70;;;25.60;;
44670;SDS011;48397;53.016;-2.260;2023-04-29T04:54:23;65.25;;;25.45;;
44670;SDS011;48397;53.016;-2.260;2023-04-29T04:56:59;61.03;;;26.48;;
44670;SDS011;48397;53.016;-2.260;2023-04-29T04:59:32;55.33;;;23.27;;
44670;SDS011;48397;53.016;-2.260;2023-04-29T05:02:00;56.80;;;24.35;;
44670;SDS011;48397;53.016;-2.260;2023-04-29T05:04:28;63.58;;;26.17;;
44670;SDS011;48397;53.016;-2.260;2023-04-29T05:09:27;63.33;;;26.27;;
44670;SDS011;48397;53.016;-2.260;2023-04-29T05:11:55;70.45;;;27.85;;
44670;SDS011;48397;53.016;-2.260;2023-04-29T05:14:22;66.55;;;27.88;;
44670;SDS011;48397;53.016;-2.260;2023-04-29T05:16:57;71.10;;;29.60;;
44670;SDS011;48397;53.016;-2.260;2023-04-29T05:19:26;73.18;;;31.25;;
44670;SDS011;48397;53.016;-2.260;2023-04-29T05:21:53;68.55;;;30.73;;
44670;SDS011;48397;53.016;-2.260;2023-04-29T05:24:21;71.57;;;33.13;;
44670;SDS011;48397;53.016;-2.260;2023-04-29T05:26:49;69.95;;;31.00;;
44670;SDS011;48397;53.016;-2.260;2023-04-29T05:29:18;66.13;;;29.27;;
44670;SDS011;48397;53.016;-2.260;2023-04-29T05:31:51;64.20;;;29.58;;
44670;SDS011;48397;53.016;-2.260;2023-04-29T05:34:19;68.80;;;29.48;;
44670;SDS011;48397;53.016;-2.260;2023-04-29T05:36:46;63.13;;;27.42;;
44670;SDS011;48397;53.016;-2.260;2023-04-29T05:39:14;68.20;;;28.67;;
44670;SDS011;48397;53.016;-2.260;2023-04-29T05:41:47;66.80;;;28.55;;
44670;SDS011;48397;53.016;-2.260;2023-04-29T05:44:22;62.15;;;28.15;;
44670;SDS011;48397;53.016;-2.260;2023-04-29T05:46:50;63.78;;;28.15;;
44670;SDS011;48397;53.016;-2.260;2023-04-29T05:49:18;60.03;;;28.40;;
44670;SDS011;48397;53.016;-2.260;2023-04-29T05:56:42;63.63;;;27.15;;
44670;SDS011;48397;53.016;-2.260;2023-04-29T05:59:09;62.92;;;28.45;;
44670;SDS011;48397;53.016;-2.260;2023-04-29T06:01:38;62.95;;;28.75;;
44670;SDS011;48397;53.016;-2.260;2023-04-29T06:04:06;62.72;;;28.65;;
44670;SDS011;48397;53.016;-2.260;2023-04-29T06:06:53;58.15;;;26.65;;
44670;SDS011;48397;53.016;-2.260;2023-04-29T06:09:42;56.95;;;27.27;;
44670;SDS011;48397;53.016;-2.260;2023-04-29T12:06:14;24.60;;;8.70;;
44670;SDS011;48397;53.016;-2.260;2023-04-29T12:08:42;12.10;;;6.22;;
44670;SDS011;48397;53.016;-2.260;2023-04-29T12:11:13;8.18;;;4.90;;
44670;SDS011;48397;53.016;-2.260;2023-04-29T12:16:09;13.60;;;6.88;;
44670;SDS011;48397;53.016;-2.260;2023-04-29T12:18:37;13.35;;;6.82;;
44670;SDS011;48397;53.016;-2.260;2023-04-29T12:21:04;10.07;;;6.15;;
44670;SDS011;48397;53.016;-2.260;2023-04-29T12:23:35;14.43;;;7.57;;
44670;SDS011;48397;53.016;-2.260;2023-04-29T12:26:04;10.20;;;6.85;;
44670;SDS011;48397;53.016;-2.260;2023-04-29T12:28:32;11.95;;;6.45;;
44670;SDS011;48397;53.016;-2.260;2023-04-29T12:31:03;10.57;;;7.03;;
44670;SDS011;48397;53.016;-2.260;2023-04-29T12:33:33;10.35;;;6.53;;
44670;SDS011;48397;53.016;-2.260;2023-04-29T12:36:01;12.07;;;7.82;;
44670;SDS011;48397;53.016;-2.260;2023-04-29T12:38:30;10.02;;;6.53;;
44670;SDS011;48397;53.016;-2.260;2023-04-29T12:40:58;10.82;;;7.10;;
44670;SDS011;48397;53.016;-2.260;2023-04-29T12:43:31;11.10;;;7.05;;
44670;SDS011;48397;53.016;-2.260;2023-04-29T12:46:03;11.45;;;7.65;;
44670;SDS011;48397;53.016;-2.260;2023-04-29T12:48:36;13.00;;;8.35;;
44670;SDS011;48397;53.016;-2.260;2023-04-29T12:51:11;11.90;;;7.45;;
44670;SDS011;48397;53.016;-2.260;2023-04-29T12:53:39;21.73;;;8.95;;
44670;SDS011;48397;53.016;-2.260;2023-04-29T12:56:07;12.18;;;7.47;;
44670;SDS011;48397;53.016;-2.260;2023-04-29T12:58:43;10.65;;;7.43;;
44670;SDS011;48397;53.016;-2.260;2023-04-29T13:01:11;12.05;;;8.23;;
44670;SDS011;48397;53.016;-2.260;2023-04-29T13:03:44;33.30;;;13.43;;
44670;SDS011;48397;53.016;-2.260;2023-04-29T13:06:13;11.80;;;7.20;;
44670;SDS011;48397;53.016;-2.260;2023-04-29T13:08:42;11.52;;;7.15;;
44670;SDS011;48397;53.016;-2.260;2023-04-29T13:11:10;11.77;;;7.50;;
44670;SDS011;48397;53.016;-2.260;2023-04-29T13:13:39;51.88;;;15.68;;
44670;SDS011;48397;53.016;-2.260;2023-04-29T13:16:08;15.50;;;8.88;;
44670;SDS011;48397;53.016;-2.260;2023-04-29T13:18:36;11.55;;;7.80;;
44670;SDS011;48397;53.016;-2.260;2023-04-29T13:21:05;92.13;;;25.40;;
44670;SDS011;48397;53.016;-2.260;2023-04-29T13:23:32;10.73;;;7.18;;
44670;SDS011;48397;53.016;-2.260;2023-04-29T13:26:00;13.38;;;7.55;;
44670;SDS011;48397;53.016;-2.260;2023-04-29T13:28:28;12.55;;;9.13;;
44670;SDS011;48397;53.016;-2.260;2023-04-29T13:30:59;12.48;;;8.38;;
44670;SDS011;48397;53.016;-2.260;2023-04-29T13:33:27;14.88;;;9.45;;
44670;SDS011;48397;53.016;-2.260;2023-04-29T13:35:54;11.25;;;6.75;;
44670;SDS011;48397;53.016;-2.260;2023-04-29T13:38:22;9.80;;;6.57;;
44670;SDS011;48397;53.016;-2.260;2023-04-29T13:40:50;9.95;;;6.78;;
44670;SDS011;48397;53.016;-2.260;2023-04-29T13:43:21;15.70;;;8.05;;
44670;SDS011;48397;53.016;-2.260;2023-04-29T13:46:04;12.68;;;8.85;;
44670;SDS011;48397;53.016;-2.260;2023-04-29T13:48:34;11.57;;;7.70;;
44670;SDS011;48397;53.016;-2.260;2023-04-29T13:51:21;12.18;;;7.25;;
44670;SDS011;48397;53.016;-2.260;2023-04-29T13:54:09;13.75;;;8.35;;
44670;SDS011;48397;53.016;-2.260;2023-04-29T13:56:57;12.65;;;8.55;;
44670;SDS011;48397;53.016;-2.260;2023-04-29T13:59:27;10.52;;;7.30;;
44670;SDS011;48397;53.016;-2.260;2023-04-29T14:02:10;9.18;;;5.97;;
44670;SDS011;48397;53.016;-2.260;2023-04-29T14:04:52;10.52;;;6.80;;
44670;SDS011;48397;53.016;-2.260;2023-04-29T14:07:20;10.57;;;7.28;;
44670;SDS011;48397;53.016;-2.260;2023-04-29T14:09:50;11.50;;;7.30;;
44670;SDS011;48397;53.016;-2.260;2023-04-29T14:12:19;15.43;;;8.55;;
44670;SDS011;48397;53.016;-2.260;2023-04-29T14:14:46;14.50;;;8.35;;
44670;SDS011;48397;53.016;-2.260;2023-04-29T14:17:16;11.48;;;7.68;;
44670;SDS011;48397;53.016;-2.260;2023-04-29T14:19:44;16.02;;;8.98;;
44670;SDS011;48397;53.016;-2.260;2023-04-29T14:22:12;13.68;;;8.63;;
44670;SDS011;48397;53.016;-2.260;2023-04-29T14:24:39;14.10;;;8.23;;
44670;SDS011;48397;53.016;-2.260;2023-04-29T14:27:07;14.13;;;8.18;;
44670;SDS011;48397;53.016;-2.260;2023-04-29T14:29:36;15.98;;;9.25;;
44670;SDS011;48397;53.016;-2.260;2023-04-29T14:34:33;12.95;;;8.65;;
44670;SDS011;48397;53.016;-2.260;2023-04-29T14:37:01;15.00;;;9.07;;
44670;SDS011;48397;53.016;-2.260;2023-04-29T14:39:29;16.27;;;9.30;;
44670;SDS011;48397;53.016;-2.260;2023-04-29T14:44:24;15.93;;;9.05;;
44670;SDS011;48397;53.016;-2.260;2023-04-29T14:46:54;17.65;;;9.43;;
44670;SDS011;48397;53.016;-2.260;2023-04-29T14:49:23;15.60;;;9.65;;
44670;SDS011;48397;53.016;-2.260;2023-04-29T14:51:50;19.50;;;10.85;;
44670;SDS011;48397;53.016;-2.260;2023-04-29T14:56:46;19.92;;;11.35;;
44670;SDS011;48397;53.016;-2.260;2023-04-29T14:59:14;19.98;;;11.35;;
44670;SDS011;48397;53.016;-2.260;2023-04-29T15:01:42;19.05;;;12.07;;
44670;SDS011;48397;53.016;-2.260;2023-04-29T15:04:11;19.38;;;12.15;;
44670;SDS011;48397;53.016;-2.260;2023-04-29T15:06:40;18.88;;;10.95;;
44670;SDS011;48397;53.016;-2.260;2023-04-29T15:09:08;18.15;;;10.13;;
44670;SDS011;48397;53.016;-2.260;2023-04-29T15:11:36;16.75;;;9.63;;
44670;SDS011;48397;53.016;-2.260;2023-04-29T15:14:04;9.07;;;5.07;;
44670;SDS011;48397;53.016;-2.260;2023-04-29T15:16:33;6.00;;;3.63;;
44670;SDS011;48397;53.016;-2.260;2023-04-29T15:19:02;5.43;;;3.45;;
44670;SDS011;48397;53.016;-2.260;2023-04-29T15:21:30;3.90;;;2.58;;
44670;SDS011;48397;53.016;-2.260;2023-04-29T15:24:00;2.70;;;2.00;;
44670;SDS011;48397;53.016;-2.260;2023-04-29T15:26:28;2.33;;;1.20;;
44670;SDS011;48397;53.016;-2.260;2023-04-29T15:28:56;3.58;;;1.30;;
44670;SDS011;48397;53.016;-2.260;2023-04-29T15:31:24;1.50;;;1.23;;
44670;SDS011;48397;53.016;-2.260;2023-04-29T15:33:55;2.05;;;1.00;;
44670;SDS011;48397;53.016;-2.260;2023-04-29T15:36:26;3.38;;;1.20;;
44670;SDS011;48397;53.016;-2.260;2023-04-29T15:38:57;2.38;;;1.00;;
44670;SDS011;48397;53.016;-2.260;2023-04-29T15:41:25;2.78;;;1.27;;
44670;SDS011;48397;53.016;-2.260;2023-04-29T15:43:54;2.17;;;1.20;;
44670;SDS011;48397;53.016;-2.260;2023-04-29T15:46:23;3.03;;;1.10;;
44670;SDS011;48397;53.016;-2.260;2023-04-29T15:48:51;3.22;;;1.42;;
44670;SDS011;48397;53.016;-2.260;2023-04-29T15:53:46;3.67;;;1.52;;
44670;SDS011;48397;53.016;-2.260;2023-04-29T15:56:16;2.85;;;1.30;;
44670;SDS011;48397;53.016;-2.260;2023-04-29T15:58:44;2.25;;;1.42;;
44670;SDS011;48397;53.016;-2.260;2023-04-29T16:01:12;2.40;;;1.10;;
44670;SDS011;48397;53.016;-2.260;2023-04-29T16:03:41;1.48;;;1.00;;
44670;SDS011;48397;53.016;-2.260;2023-04-29T16:08:36;4.20;;;1.20;;
44670;SDS011;48397;53.016;-2.260;2023-04-29T16:11:04;2.33;;;1.20;;
44670;SDS011;48397;53.016;-2.260;2023-04-29T16:13:33;2.08;;;1.15;;
44670;SDS011;48397;53.016;-2.260;2023-04-29T16:16:02;3.80;;;1.10;;
44670;SDS011;48397;53.016;-2.260;2023-04-29T16:18:30;1.85;;;1.00;;
44670;SDS011;48397;53.016;-2.260;2023-04-29T16:21:00;2.13;;;1.13;;
44670;SDS011;48397;53.016;-2.260;2023-04-29T16:23:28;1.70;;;1.20;;
44670;SDS011;48397;53.016;-2.260;2023-04-29T16:25:56;1.58;;;1.02;;
44670;SDS011;48397;53.016;-2.260;2023-04-29T16:28:24;1.60;;;0.80;;
44670;SDS011;48397;53.016;-2.260;2023-04-29T16:30:54;1.63;;;1.10;;
44670;SDS011;48397;53.016;-2.260;2023-04-29T16:33:25;1.90;;;1.00;;
44670;SDS011;48397;53.016;-2.260;2023-04-29T16:35:54;1.17;;;0.93;;
44670;SDS011;48397;53.016;-2.260;2023-04-29T16:38:26;3.17;;;1.52;;
44670;SDS011;48397;53.016;-2.260;2023-04-29T16:43:22;1.95;;;1.00;;
44670;SDS011;48397;53.016;-2.260;2023-04-29T16:45:50;1.23;;;1.10;;
44670;SDS011;48397;53.016;-2.260;2023-04-29T16:48:21;1.15;;;1.05;;
44670;SDS011;48397;53.016;-2.260;2023-04-29T16:50:49;1.77;;;1.10;;
44670;SDS011;48397;53.016;-2.260;2023-04-29T16:53:18;1.40;;;1.20;;
44670;SDS011;48397;53.016;-2.260;2023-04-29T16:55:46;1.15;;;1.00;;
44670;SDS011;48397;53.016;-2.260;2023-04-29T16:58:14;1.52;;;1.00;;
44670;SDS011;48397;53.016;-2.260;2023-04-29T17:00:52;1.80;;;1.40;;
44670;SDS011;48397;53.016;-2.260;2023-04-29T17:03:40;1.98;;;1.10;;
44670;SDS011;48397;53.016;-2.260;2023-04-29T17:06:08;1.30;;;1.20;;
44670;SDS011;48397;53.016;-2.260;2023-04-29T17:08:36;1.50;;;1.13;;
44670;SDS011;48397;53.016;-2.260;2023-04-29T17:11:22;1.65;;;1.25;;
44670;SDS011;48397;53.016;-2.260;2023-04-29T17:13:50;2.72;;;1.40;;
44670;SDS011;48397;53.016;-2.260;2023-04-29T17:16:18;1.30;;;1.20;;
44670;SDS011;48397;53.016;-2.260;2023-04-29T17:18:46;2.80;;;1.40;;
44670;SDS011;48397;53.016;-2.260;2023-04-29T17:23:43;3.50;;;1.50;;
44670;SDS011;48397;53.016;-2.260;2023-04-29T17:26:12;3.53;;;1.80;;
44670;SDS011;48397;53.016;-2.260;2023-04-29T17:28:44;3.47;;;1.60;;
44670;SDS011;48397;53.016;-2.260;2023-04-29T17:31:12;2.28;;;1.60;;
44670;SDS011;48397;53.016;-2.260;2023-04-29T17:33:43;2.35;;;1.63;;
44670;SDS011;48397;53.016;-2.260;2023-04-29T17:36:22;3.55;;;2.10;;
44670;SDS011;48397;53.016;-2.260;2023-04-29T17:38:49;3.13;;;2.40;;
44670;SDS011;48397;53.016;-2.260;2023-04-29T17:41:18;3.90;;;2.05;;
44670;SDS011;48397;53.016;-2.260;2023-04-29T17:43:48;2.92;;;1.77;;
44670;SDS011;48397;53.016;-2.260;2023-04-29T17:51:12;2.70;;;1.70;;
44670;SDS011;48397;53.016;-2.260;2023-04-29T17:53:39;3.80;;;1.85;;
44670;SDS011;48397;53.016;-2.260;2023-04-29T17:56:07;4.20;;;2.17;;
44670;SDS011;48397;53.016;-2.260;2023-04-29T17:58:36;3.10;;;2.10;;
44670;SDS011;48397;53.016;-2.260;2023-04-29T18:01:04;2.58;;;2.00;;
44670;SDS011;48397;53.016;-2.260;2023-04-29T18:03:33;3.65;;;2.20;;
44670;SDS011;48397;53.016;-2.260;2023-04-29T18:06:01;4.82;;;1.90;;
44670;SDS011;48397;53.016;-2.260;2023-04-29T18:08:29;5.82;;;2.80;;
44670;SDS011;48397;53.016;-2.260;2023-04-29T18:10:58;4.45;;;2.63;;
44670;SDS011;48397;53.016;-2.260;2023-04-29T18:13:26;7.80;;;3.40;;
44670;SDS011;48397;53.016;-2.260;2023-04-29T18:15:57;5.15;;;3.50;;
44670;SDS011;48397;53.016;-2.260;2023-04-29T18:18:29;6.22;;;4.22;;
44670;SDS011;48397;53.016;-2.260;2023-04-29T18:20:57;6.22;;;4.03;;
44670;SDS011;48397;53.016;-2.260;2023-04-29T18:23:25;8.35;;;5.88;;
44670;SDS011;48397;53.016;-2.260;2023-04-29T18:25:53;10.45;;;6.88;;
44670;SDS011;48397;53.016;-2.260;2023-04-29T18:28:21;14.55;;;8.13;;
44670;SDS011;48397;53.016;-2.260;2023-04-29T18:30:51;16.02;;;9.30;;
44670;SDS011;48397;53.016;-2.260;2023-04-29T18:33:20;15.38;;;9.23;;
44670;SDS011;48397;53.016;-2.260;2023-04-29T18:35:49;17.95;;;10.02;;
44670;SDS011;48397;53.016;-2.260;2023-04-29T18:38:19;13.60;;;8.50;;
44670;SDS011;48397;53.016;-2.260;2023-04-29T18:40:47;14.07;;;8.63;;
44670;SDS011;48397;53.016;-2.260;2023-04-29T18:45:44;15.48;;;7.82;;
44670;SDS011;48397;53.016;-2.260;2023-04-29T18:48:13;11.52;;;7.40;;
44670;SDS011;48397;53.016;-2.260;2023-04-29T18:50:41;13.95;;;7.38;;
44670;SDS011;48397;53.016;-2.260;2023-04-29T18:55:38;13.80;;;7.82;;
44670;SDS011;48397;53.016;-2.260;2023-04-29T18:58:06;12.65;;;7.85;;
44670;SDS011;48397;53.016;-2.260;2023-04-29T19:00:35;14.25;;;8.25;;
44670;SDS011;48397;53.016;-2.260;2023-04-29T19:03:03;14.88;;;8.27;;
44670;SDS011;48397;53.016;-2.260;2023-04-29T19:05:33;13.27;;;8.45;;
44670;SDS011;48397;53.016;-2.260;2023-04-29T19:08:03;15.13;;;8.68;;
44670;SDS011;48397;53.016;-2.260;2023-04-29T19:12:59;14.55;;;9.00;;
44670;SDS011;48397;53.016;-2.260;2023-04-29T19:15:27;14.13;;;8.57;;
44670;SDS011;48397;53.016;-2.260;2023-04-29T19:17:55;16.15;;;9.18;;
44670;SDS011;48397;53.016;-2.260;2023-04-29T19:22:50;13.70;;;8.98;;
44670;SDS011;48397;53.016;-2.260;2023-04-29T19:25:19;17.27;;;10.10;;
44670;SDS011;48397;53.016;-2.260;2023-04-29T19:27:47;14.40;;;8.82;;
44670;SDS011;48397;53.016;-2.260;2023-04-29T19:30:17;15.55;;;8.32;;
44670;SDS011;48397;53.016;-2.260;2023-04-29T19:32:44;14.85;;;8.73;;
44670;SDS011;48397;53.016;-2.260;2023-04-29T19:35:13;15.30;;;8.65;;
44670;SDS011;48397;53.016;-2.260;2023-04-29T19:37:40;12.75;;;8.23;;
44670;SDS011;48397;53.016;-2.260;2023-04-29T19:40:08;12.43;;;8.45;;
44670;SDS011;48397;53.016;-2.260;2023-04-29T19:42:37;14.80;;;8.55;;
44670;SDS011;48397;53.016;-2.260;2023-04-29T19:45:06;13.88;;;8.25;;
44670;SDS011;48397;53.016;-2.260;2023-04-29T19:47:35;13.85;;;8.50;;
44670;SDS011;48397;53.016;-2.260;2023-04-29T19:50:02;14.98;;;8.95;;
44670;SDS011;48397;53.016;-2.260;2023-04-29T19:52:31;18.85;;;11.48;;
44670;SDS011;48397;53.016;-2.260;2023-04-29T19:54:59;21.23;;;12.05;;
44670;SDS011;48397;53.016;-2.260;2023-04-29T19:57:27;17.15;;;10.98;;
44670;SDS011;48397;53.016;-2.260;2023-04-29T19:59:55;19.05;;;11.48;;
44670;SDS011;48397;53.016;-2.260;2023-04-29T20:02:24;15.95;;;10.20;;
44670;SDS011;48397;53.016;-2.260;2023-04-29T20:04:53;18.13;;;10.57;;
44670;SDS011;48397;53.016;-2.260;2023-04-29T20:07:24;17.80;;;10.57;;
44670;SDS011;48397;53.016;-2.260;2023-04-29T20:09:51;19.65;;;10.93;;
44670;SDS011;48397;53.016;-2.260;2023-04-29T20:12:21;17.05;;;10.30;;
44670;SDS011;48397;53.016;-2.260;2023-04-29T20:14:49;17.52;;;11.00;;
44670;SDS011;48397;53.016;-2.260;2023-04-29T20:17:17;17.45;;;11.30;;
44670;SDS011;48397;53.016;-2.260;2023-04-29T20:19:45;19.45;;;11.98;;
44670;SDS011;48397;53.016;-2.260;2023-04-29T20:22:13;18.23;;;11.68;;
44670;SDS011;48397;53.016;-2.260;2023-04-29T20:27:14;19.88;;;12.15;;
44670;SDS011;48397;53.016;-2.260;2023-04-29T20:29:42;22.08;;;13.10;;
44670;SDS011;48397;53.016;-2.260;2023-04-29T20:32:10;18.92;;;12.15;;
44670;SDS011;48397;53.016;-2.260;2023-04-29T20:34:39;19.38;;;11.85;;
44670;SDS011;48397;53.016;-2.260;2023-04-29T20:39:35;21.83;;;11.00;;
44670;SDS011;48397;53.016;-2.260;2023-04-29T20:42:04;19.58;;;11.15;;
44670;SDS011;48397;53.016;-2.260;2023-04-29T20:47:00;19.90;;;11.20;;
44670;SDS011;48397;53.016;-2.260;2023-04-29T20:49:29;20.10;;;10.80;;
44670;SDS011;48397;53.016;-2.260;2023-04-29T20:54:26;18.77;;;11.60;;
44670;SDS011;48397;53.016;-2.260;2023-04-29T20:57:00;22.08;;;11.68;;
44670;SDS011;48397;53.016;-2.260;2023-04-29T20:59:33;21.00;;;11.15;;
44670;SDS011;48397;53.016;-2.260;2023-04-29T21:02:02;19.27;;;10.95;;
44670;SDS011;48397;53.016;-2.260;2023-04-29T21:04:31;22.02;;;11.45;;
44670;SDS011;48397;53.016;-2.260;2023-04-29T21:07:02;21.10;;;11.60;;
44670;SDS011;48397;53.016;-2.260;2023-04-29T21:09:34;17.38;;;10.30;;
44670;SDS011;48397;53.016;-2.260;2023-04-29T21:12:19;18.65;;;10.02;;
44670;SDS011;48397;53.016;-2.260;2023-04-29T21:14:47;18.77;;;10.38;;
44670;SDS011;48397;53.016;-2.260;2023-04-29T21:17:15;17.95;;;11.13;;
44670;SDS011;48397;53.016;-2.260;2023-04-29T21:19:42;19.90;;;11.07;;
44670;SDS011;48397;53.016;-2.260;2023-04-29T21:22:10;19.85;;;11.02;;
44670;SDS011;48397;53.016;-2.260;2023-04-29T21:24:37;19.15;;;11.15;;
44670;SDS011;48397;53.016;-2.260;2023-04-29T21:27:06;18.40;;;10.60;;
44670;SDS011;48397;53.016;-2.260;2023-04-29T21:29:34;19.92;;;11.10;;
44670;SDS011;48397;53.016;-2.260;2023-04-29T21:32:07;20.58;;;11.63;;
44670;SDS011;48397;53.016;-2.260;2023-04-29T21:34:34;22.75;;;11.63;;
44670;SDS011;48397;53.016;-2.260;2023-04-29T21:37:02;21.67;;;12.27;;
44670;SDS011;48397;53.016;-2.260;2023-04-29T21:39:33;21.98;;;11.95;;
44670;SDS011;48397;53.016;-2.260;2023-04-29T21:42:01;20.88;;;11.27;;
44670;SDS011;48397;53.016;-2.260;2023-04-29T21:44:30;23.70;;;12.30;;
44670;SDS011;48397;53.016;-2.260;2023-04-29T21:46:58;19.75;;;11.77;;
44670;SDS011;48397;53.016;-2.260;2023-04-29T21:49:27;23.17;;;12.25;;
44670;SDS011;48397;53.016;-2.260;2023-04-29T21:56:50;22.00;;;12.23;;
44670;SDS011;48397;53.016;-2.260;2023-04-29T21:59:18;20.88;;;12.40;;
44670;SDS011;48397;53.016;-2.260;2023-04-29T22:01:47;18.08;;;10.45;;
44670;SDS011;48397;53.016;-2.260;2023-04-29T22:04:17;18.48;;;11.15;;